In Rescue
 
Open Full Screen Window  High Contrast Mode
Wind Gusting 00 knots
04
October 19, 2020 7:40 PM CDT
Weather Information
Wind Direction
  130 °
Wind Speed
  04 kt (5 mph)
Wind Gust
  00 kt (0 mph)
Altimeter
30.23 in
Visibility
10 SM
Temperature
02° C
36° F
Dewpoint
00° C
32° F
Humidity
87%
1hr Rain Fall
00.00 in.
24hr Rain Fall
00.01 in.
Sky Condition
Overcast @ 2,000 ft
MVFR

METAR KDXX 200040Z AUTO 13004KT 10SM OVC020 02/00 A3023 RMK AO2 PWINO

FAA Disclaimer: The data displayed is for advisory purposes only and is not to be used for flight planning or operations.